Etusivu
METAR-TAF:

METAR-TAF

Lentoasemat :

Georgetown, Ascension

Leveyspiiri: 07-58S, Pituuspiiri: 014-24W, korkeus merenpinnasta: 86 m

Tämänhetkinen sää

Tämä raportti tehtiin 3 tuntia ja 32 minuuttia sitten, kello 20.50 UTC
Tuuli 14 kn kaakosta
Lämpötila 23°C
Kosteus 73%
Ilmanpaine 1014 hPa
Näkyvyys 10 km tai enemmän
Muutamia pilviä 2000 ft:n korkeudessa

METAR: FHAW 192050Z 14014KT 9999 FEW020 23/18 Q1014 BLU

Aika: 00:22 (00:22 UTC)

Sääennuste

Tämä raportti tehtiin 16 tuntia ja 52 minuuttia sitten, kello 07.30 UTC
Ennuste voimassa 19. päivästä klo 09 UTC - 20. päivään klo 03 UTC
Tuuli 15 kn idästä/kaakosta
Näkyvyys 10 km tai enemmän
Muutamia pilviä 2800 ft:n korkeudessa
Hajanaisia pilviä 4500 ft:n korkeudessa
Todennäköisyys 30% :
Ajoittain
19. päivästä klo 20 UTC - 20. päivään klo 03 UTC
Hajanaisia pilviä 2000 ft:n korkeudessa
heikkoja vesikuuroja

TAF: FHAW 190730Z 1909/2003 12015KT 9999 FEW028 SCT045 PROB30 TEMPO 1920/2003 -SHRA SCT020

Säähavainnot ja -ennusteet yli 4000 lentoasemalta (METAR- ja TAF-raportit).

Käytössä olevat sääasemat on merkitty karttaan keltaisilla ja punaisilla pisteillä.

Aseta hiiri pisteen päälle nähdäksesi sääaseman nimen.

Klikkaa sitten nähdäksesi säähavainnot ja -ennusteet.

Kartan vaihtaminen: klikkaa mustalla rastilla varustettuja vihreitä pisteitä, niin voit zoomata sisään; viivalla varustettua vihreää pistettä, niin voit zoomata ulos tai vihreitä nuolia, niin pääset viereisille kartoille.


METAR-TAF: